Time;durP1;ratioP1;P1;durP2;ratioP2;P2;SDS_P1;SDS_P2;PMS_P1;PMS_P2;Temp;Humidity;BMP_temperature;BMP_pressure;BME280_temperature;BME280_humidity;BME280_pressure;Samples;Min_cycle;Max_cycle;Signal;HPM_P1;HPM_P2
2024/01/18 00:00:32;;;;;;;1.50;1.00;;;11.30;90.20;;;;;;5092534;28;20024;-44
2024/01/18 00:02:57;;;;;;;1.85;0.75;;;11.20;90.30;;;;;;5092797;28;20389;-44
2024/01/18 00:05:23;;;;;;;1.50;0.95;;;11.10;90.40;;;;;;5092697;28;20035;-44
2024/01/18 00:07:49;;;;;;;1.10;0.73;;;11.00;90.40;;;;;;5092322;28;20024;-44
2024/01/18 00:10:14;;;;;;;1.92;1.10;;;10.90;91.20;;;;;;5092216;28;20441;-44
2024/01/18 00:12:42;;;;;;;1.00;0.77;;;11.10;91.40;;;;;;5092307;28;20537;-44
2024/01/18 00:15:08;;;;;;;1.83;0.95;;;11.40;90.90;;;;;;5092324;28;20031;-44
2024/01/18 00:17:33;;;;;;;1.30;1.00;;;11.50;90.30;;;;;;5092198;28;20024;-41
2024/01/18 00:19:59;;;;;;;1.17;0.90;;;11.50;90.10;;;;;;5092156;28;20089;-44
2024/01/18 00:22:25;;;;;;;1.25;0.82;;;11.40;90.10;;;;;;5092043;28;20032;-44
2024/01/18 00:24:51;;;;;;;1.45;0.80;;;11.30;90.50;;;;;;5091733;28;20046;-43
2024/01/18 00:27:16;;;;;;;1.00;0.70;;;11.20;90.20;;;;;;5092346;28;20020;-44
2024/01/18 00:29:42;;;;;;;0.80;0.70;;;11.20;90.30;;;;;;5090645;28;20127;-44
2024/01/18 00:32:08;;;;;;;1.08;0.85;;;11.10;90.70;;;;;;5092402;28;20032;-44
2024/01/18 00:34:33;;;;;;;1.38;0.88;;;11.10;91.30;;;;;;5091810;28;20107;-44
2024/01/18 00:36:59;;;;;;;1.33;0.90;;;11.30;91.30;;;;;;5091844;28;20028;-44
2024/01/18 00:39:25;;;;;;;1.13;0.90;;;11.60;90.50;;;;;;5091511;28;20474;-44
2024/01/18 00:41:50;;;;;;;1.10;0.77;;;11.60;90.10;;;;;;5092286;28;20027;-42
2024/01/18 00:44:16;;;;;;;1.27;0.80;;;11.50;90.00;;;;;;5091993;28;20073;-43
2024/01/18 00:46:42;;;;;;;1.17;0.70;;;11.50;90.10;;;;;;5091620;28;20032;-44
2024/01/18 00:49:07;;;;;;;0.88;0.70;;;11.40;90.20;;;;;;5091590;28;20043;-44
2024/01/18 00:51:33;;;;;;;0.95;0.75;;;11.30;90.20;;;;;;5091853;28;20028;-44
2024/01/18 00:53:59;;;;;;;0.93;0.80;;;11.20;90.30;;;;;;5092036;28;20119;-44
2024/01/18 00:56:24;;;;;;;1.38;0.90;;;11.10;90.90;;;;;;5091938;28;20081;-44
2024/01/18 00:58:50;;;;;;;1.00;0.82;;;11.20;91.30;;;;;;5091913;28;20032;-44
2024/01/18 01:01:16;;;;;;;1.45;0.82;;;11.50;91.00;;;;;;5091566;28;20032;-44
2024/01/18 01:03:42;;;;;;;1.15;0.90;;;11.60;90.30;;;;;;5091357;28;20028;-44
2024/01/18 01:06:12;;;;;;;0.80;0.68;;;11.60;90.10;;;;;;5091431;28;20378;-44
2024/01/18 01:08:38;;;;;;;1.45;0.90;;;11.50;90.00;;;;;;5091526;28;20024;-44
2024/01/18 01:11:05;;;;;;;0.88;0.60;;;11.50;90.10;;;;;;5091704;28;20023;-44
2024/01/18 01:13:32;;;;;;;0.90;0.60;;;11.40;90.20;;;;;;5091880;28;20099;-44
2024/01/18 01:15:57;;;;;;;0.80;0.70;;;11.30;90.30;;;;;;5091583;28;20070;-43
2024/01/18 01:18:23;;;;;;;0.82;0.60;;;11.20;90.40;;;;;;5091234;28;20032;-44
2024/01/18 01:20:48;;;;;;;1.25;0.77;;;11.10;91.10;;;;;;5091408;28;20066;-42
2024/01/18 01:23:15;;;;;;;1.17;0.90;;;11.40;91.40;;;;;;5091217;28;20020;-44
2024/01/18 01:25:40;;;;;;;1.02;0.80;;;11.60;90.70;;;;;;5091793;28;20537;-41
2024/01/18 01:28:06;;;;;;;0.77;0.63;;;11.70;90.20;;;;;;5090996;28;20043;-44
2024/01/18 01:30:32;;;;;;;1.25;0.77;;;11.60;90.10;;;;;;5091603;28;20024;-44
2024/01/18 01:32:58;;;;;;;1.05;0.60;;;11.50;90.10;;;;;;5091499;28;20024;-44
2024/01/18 01:35:24;;;;;;;1.48;0.80;;;11.50;90.20;;;;;;5091610;28;20390;-44
2024/01/18 01:37:49;;;;;;;0.63;0.60;;;11.40;90.20;;;;;;5091061;28;20025;-44
2024/01/18 01:40:15;;;;;;;1.90;0.80;;;11.30;90.30;;;;;;5090788;28;20032;-44
2024/01/18 01:42:41;;;;;;;0.60;0.60;;;11.20;90.80;;;;;;5091487;28;20032;-43
2024/01/18 01:45:07;;;;;;;0.80;0.70;;;11.20;91.30;;;;;;5091003;28;20477;-44
2024/01/18 01:47:33;;;;;;;1.23;0.75;;;11.50;91.20;;;;;;5091768;28;20048;-42
2024/01/18 01:50:00;;;;;;;0.90;0.80;;;11.70;90.40;;;;;;5091365;28;20047;-44
2024/01/18 01:52:29;;;;;;;1.65;0.80;;;11.70;90.10;;;;;;5091014;28;20028;-44
2024/01/18 01:54:55;;;;;;;0.75;0.65;;;11.70;90.10;;;;;;5090896;28;20032;-42
2024/01/18 01:57:21;;;;;;;1.13;0.70;;;11.60;90.10;;;;;;5091515;28;20110;-44
2024/01/18 01:59:47;;;;;;;1.20;0.75;;;11.50;90.20;;;;;;5092966;28;20116;-44
2024/01/18 02:02:13;;;;;;;1.10;0.82;;;11.40;90.30;;;;;;5093777;28;20490;-44
2024/01/18 02:04:40;;;;;;;0.85;0.60;;;11.30;90.30;;;;;;5094662;28;20115;-44
2024/01/18 02:07:08;;;;;;;1.13;0.60;;;11.30;91.00;;;;;;5094587;28;20020;-44
2024/01/18 02:09:34;;;;;;;1.13;0.80;;;11.30;91.30;;;;;;5094815;28;20016;-44
2024/01/18 02:12:02;;;;;;;1.10;0.60;;;11.60;90.90;;;;;;5094663;28;20054;-44
2024/01/18 02:14:29;;;;;;;0.75;0.60;;;11.70;90.30;;;;;;5094643;28;20064;-42
2024/01/18 02:16:56;;;;;;;0.80;0.60;;;11.70;90.10;;;;;;5093378;28;20051;-44
2024/01/18 02:19:23;;;;;;;1.00;0.60;;;11.60;90.10;;;;;;5094952;28;20045;-42
2024/01/18 02:21:48;;;;;;;1.23;0.70;;;11.60;90.20;;;;;;5094581;28;20394;-44
2024/01/18 02:24:21;;;;;;;1.20;0.60;;;11.50;90.20;;;;;;5094571;28;20100;-44
2024/01/18 02:26:47;;;;;;;1.48;0.73;;;11.40;90.30;;;;;;5094347;28;20016;-44
2024/01/18 02:29:12;;;;;;;0.70;0.60;;;11.40;90.50;;;;;;5094279;28;20470;-44
2024/01/18 02:31:38;;;;;;;1.15;0.70;;;11.30;91.20;;;;;;5094317;28;20020;-44
2024/01/18 02:34:14;;;;;;;0.90;0.60;;;11.50;91.30;;;;;;5094639;28;20387;-44
2024/01/18 02:36:40;;;;;;;0.95;0.70;;;11.70;90.60;;;;;;5094354;28;20397;-41
2024/01/18 02:39:06;;;;;;;0.47;0.40;;;11.80;90.20;;;;;;5094002;28;20032;-44
2024/01/18 02:41:32;;;;;;;0.73;0.55;;;11.80;90.10;;;;;;5094314;28;20024;-44
2024/01/18 02:43:59;;;;;;;0.93;0.60;;;11.70;90.10;;;;;;5093912;28;20028;-43
2024/01/18 02:46:25;;;;;;;0.68;0.50;;;11.60;90.20;;;;;;5094401;28;20028;-42
2024/01/18 02:48:50;;;;;;;0.40;0.40;;;11.50;90.30;;;;;;5093759;28;20039;-44
2024/01/18 02:51:16;;;;;;;0.63;0.40;;;11.50;90.40;;;;;;5094192;28;20024;-44
2024/01/18 02:53:43;;;;;;;0.95;0.45;;;11.40;90.80;;;;;;5092574;28;20020;-43
2024/01/18 02:56:08;;;;;;;0.75;0.50;;;11.40;91.20;;;;;;5094270;28;20024;-44
2024/01/18 02:58:34;;;;;;;0.57;0.50;;;11.70;91.10;;;;;;5093713;28;20093;-44
2024/01/18 03:00:59;;;;;;;0.73;0.60;;;11.90;90.40;;;;;;5093796;28;20073;-44
2024/01/18 03:03:25;;;;;;;1.05;0.65;;;12.00;90.10;;;;;;5093917;28;20470;-40
2024/01/18 03:05:51;;;;;;;1.15;0.57;;;11.90;90.00;;;;;;5093855;28;20047;-44
2024/01/18 03:08:17;;;;;;;0.60;0.40;;;11.90;90.00;;;;;;5093438;28;20036;-44
2024/01/18 03:10:42;;;;;;;1.02;0.50;;;11.80;90.00;;;;;;5093698;28;20027;-44
2024/01/18 03:13:08;;;;;;;0.55;0.40;;;11.80;90.10;;;;;;5093402;28;20367;-44
2024/01/18 03:15:34;;;;;;;1.00;0.50;;;11.70;90.10;;;;;;5093814;28;20024;-44
2024/01/18 03:17:59;;;;;;;0.60;0.50;;;11.70;90.60;;;;;;5094001;28;20115;-44
2024/01/18 03:20:25;;;;;;;0.68;0.65;;;11.70;90.90;;;;;;5093244;28;20143;-43
2024/01/18 03:22:51;;;;;;;0.82;0.60;;;11.90;90.80;;;;;;5093280;28;20033;-44
2024/01/18 03:25:17;;;;;;;0.75;0.50;;;12.10;90.20;;;;;;5093128;28;20455;-44
2024/01/18 03:27:43;;;;;;;0.70;0.50;;;12.20;89.80;;;;;;5093117;28;20020;-44
2024/01/18 03:30:09;;;;;;;0.30;0.30;;;12.10;89.70;;;;;;5093700;28;20031;-44
2024/01/18 03:32:35;;;;;;;0.80;0.50;;;12.00;89.80;;;;;;5094141;28;20077;-44
2024/01/18 03:35:01;;;;;;;0.40;0.38;;;11.90;89.90;;;;;;5093007;28;20040;-44
2024/01/18 03:37:26;;;;;;;0.50;0.43;;;11.90;90.00;;;;;;5093216;28;20060;-44
2024/01/18 03:39:52;;;;;;;0.40;0.40;;;11.80;90.00;;;;;;5092725;28;20103;-43
2024/01/18 03:42:18;;;;;;;0.98;0.40;;;11.70;90.50;;;;;;5092772;28;20038;-44
2024/01/18 03:44:43;;;;;;;0.70;0.50;;;11.70;90.90;;;;;;5092942;28;20385;-44
2024/01/18 03:47:09;;;;;;;0.70;0.45;;;12.00;90.80;;;;;;5092751;28;20030;-43
2024/01/18 03:49:34;;;;;;;0.70;0.60;;;12.10;90.20;;;;;;5093058;28;20020;-44
2024/01/18 03:52:00;;;;;;;0.50;0.43;;;12.20;90.00;;;;;;5093113;28;20020;-44
2024/01/18 03:54:27;;;;;;;0.90;0.55;;;12.10;89.80;;;;;;5092650;28;20038;-44
2024/01/18 03:56:52;;;;;;;0.73;0.50;;;12.00;90.00;;;;;;5092499;28;20028;-42
2024/01/18 03:59:20;;;;;;;0.82;0.40;;;12.00;90.00;;;;;;5092504;28;20386;-44
2024/01/18 04:01:45;;;;;;;0.50;0.40;;;11.90;90.10;;;;;;5092587;28;20020;-44
2024/01/18 04:04:11;;;;;;;0.52;0.40;;;11.80;90.10;;;;;;5093010;28;20035;-44
2024/01/18 04:06:37;;;;;;;0.50;0.50;;;11.70;90.60;;;;;;5092397;28;20032;-44
2024/01/18 04:09:02;;;;;;;0.77;0.50;;;11.70;91.00;;;;;;5092357;28;20031;-43
2024/01/18 04:11:29;;;;;;;0.68;0.43;;;12.00;90.80;;;;;;5091621;28;20031;-43
2024/01/18 04:13:55;;;;;;;0.70;0.50;;;12.10;90.20;;;;;;5092628;28;20382;-44
2024/01/18 04:16:20;;;;;;;1.00;0.47;;;12.20;90.00;;;;;;5092425;28;20031;-44
2024/01/18 04:18:46;;;;;;;0.70;0.35;;;12.10;89.90;;;;;;5092032;28;20028;-44
2024/01/18 04:21:13;;;;;;;0.50;0.40;;;12.00;90.00;;;;;;5092213;28;20103;-44
2024/01/18 04:23:39;;;;;;;0.50;0.40;;;11.90;90.00;;;;;;5091751;28;20024;-44
2024/01/18 04:26:05;;;;;;;0.30;0.20;;;11.90;90.10;;;;;;5091998;28;20065;-41
2024/01/18 04:28:30;;;;;;;0.77;0.60;;;11.80;90.20;;;;;;5092108;28;20027;-44
2024/01/18 04:30:56;;;;;;;0.77;0.55;;;11.70;90.80;;;;;;5092105;28;20393;-44
2024/01/18 04:33:22;;;;;;;0.60;0.50;;;11.70;91.10;;;;;;5091961;28;20432;-44
2024/01/18 04:35:47;;;;;;;0.65;0.38;;;12.00;90.80;;;;;;5092373;28;20045;-44
2024/01/18 04:38:13;;;;;;;0.82;0.40;;;12.20;90.30;;;;;;5091500;28;20020;-44
2024/01/18 04:40:39;;;;;;;1.02;0.50;;;12.10;90.00;;;;;;5092699;28;20414;-44
2024/01/18 04:43:04;;;;;;;0.43;0.30;;;12.10;90.00;;;;;;5091794;28;20475;-43
2024/01/18 04:45:30;;;;;;;0.90;0.50;;;12.00;90.00;;;;;;5091750;28;20024;-44
2024/01/18 04:47:56;;;;;;;0.63;0.40;;;11.90;90.10;;;;;;5092097;28;20466;-44
2024/01/18 04:50:25;;;;;;;0.73;0.40;;;11.90;90.20;;;;;;5092040;28;20028;-44
2024/01/18 04:52:52;;;;;;;0.80;0.60;;;11.80;90.30;;;;;;5091592;28;20027;-43
2024/01/18 04:55:18;;;;;;;0.60;0.40;;;11.70;90.90;;;;;;5091633;28;20043;-42
2024/01/18 04:57:44;;;;;;;0.80;0.38;;;11.70;91.20;;;;;;5090219;28;20024;-44
2024/01/18 05:00:10;;;;;;;0.57;0.40;;;12.00;91.00;;;;;;5091571;28;20028;-44
2024/01/18 05:02:42;;;;;;;1.33;0.60;;;12.10;90.40;;;;;;5092716;28;20548;-44
2024/01/18 05:05:08;;;;;;;0.82;0.50;;;12.10;90.20;;;;;;5108141;28;20110;-44
2024/01/18 05:07:35;;;;;;;0.70;0.50;;;12.00;90.10;;;;;;5092883;28;20478;-44
2024/01/18 05:10:03;;;;;;;1.08;0.57;;;12.00;90.20;;;;;;5091410;28;20077;-44
2024/01/18 05:12:29;;;;;;;0.98;0.50;;;11.90;90.20;;;;;;5091876;28;20028;-43
2024/01/18 05:14:55;;;;;;;0.50;0.40;;;11.80;90.30;;;;;;5092438;28;20032;-43
2024/01/18 05:17:21;;;;;;;0.80;0.50;;;11.80;90.40;;;;;;5091863;28;20024;-44
2024/01/18 05:19:47;;;;;;;0.22;0.20;;;11.70;91.10;;;;;;5091066;28;20020;-43
2024/01/18 05:22:13;;;;;;;0.40;0.40;;;11.70;91.40;;;;;;5091314;28;20089;-44
2024/01/18 05:24:39;;;;;;;1.05;0.60;;;12.00;91.00;;;;;;5091987;28;20508;-42
2024/01/18 05:27:06;;;;;;;0.15;0.13;;;12.10;90.40;;;;;;5091540;28;20416;-44
2024/01/18 05:29:31;;;;;;;1.33;0.40;;;12.10;90.20;;;;;;5091173;28;20016;-44
2024/01/18 05:31:57;;;;;;;0.60;0.47;;;12.00;90.20;;;;;;5091300;28;20047;-44
2024/01/18 05:34:23;;;;;;;0.65;0.40;;;12.00;90.30;;;;;;5092063;28;20396;-44
2024/01/18 05:36:48;;;;;;;0.38;0.30;;;11.90;90.30;;;;;;5095321;28;20382;-43
2024/01/18 05:39:14;;;;;;;0.22;0.20;;;11.80;90.40;;;;;;5095552;28;20035;-43
2024/01/18 05:41:40;;;;;;;0.88;0.38;;;11.70;90.40;;;;;;5095255;28;20024;-44
2024/01/18 05:44:05;;;;;;;0.45;0.40;;;11.60;91.10;;;;;;5095071;28;20080;-44
2024/01/18 05:46:31;;;;;;;0.65;0.40;;;11.70;91.40;;;;;;5095137;28;20027;-44
2024/01/18 05:48:57;;;;;;;1.15;0.55;;;12.00;91.10;;;;;;5094892;28;20016;-43
2024/01/18 05:51:22;;;;;;;1.00;0.40;;;12.10;90.50;;;;;;5095310;28;20513;-44
2024/01/18 05:53:48;;;;;;;1.00;0.52;;;12.10;90.30;;;;;;5094985;28;20157;-43
2024/01/18 05:56:13;;;;;;;0.50;0.38;;;12.10;90.30;;;;;;5094909;28;20474;-43
2024/01/18 05:58:39;;;;;;;0.95;0.50;;;11.90;90.30;;;;;;5095244;28;20031;-43
2024/01/18 06:01:05;;;;;;;0.52;0.40;;;11.90;90.40;;;;;;5094918;28;20097;-42
2024/01/18 06:03:31;;;;;;;1.42;0.50;;;11.80;90.50;;;;;;5094573;28;20024;-44
2024/01/18 06:05:58;;;;;;;0.82;0.30;;;11.70;90.50;;;;;;5094873;28;20391;-44
2024/01/18 06:08:24;;;;;;;0.55;0.50;;;11.70;91.20;;;;;;5094644;28;20015;-44
2024/01/18 06:10:50;;;;;;;0.47;0.35;;;11.70;91.50;;;;;;5094732;28;20024;-44
2024/01/18 06:13:15;;;;;;;1.00;0.50;;;12.00;91.30;;;;;;5094749;28;20194;-43
2024/01/18 06:15:41;;;;;;;0.70;0.40;;;12.10;90.70;;;;;;5094889;28;20028;-44
2024/01/18 06:18:07;;;;;;;1.35;0.40;;;12.10;90.40;;;;;;5094317;28;20032;-44
2024/01/18 06:20:32;;;;;;;0.80;0.30;;;12.10;90.40;;;;;;5094613;28;20359;-44
2024/01/18 06:22:58;;;;;;;1.50;0.40;;;12.00;90.40;;;;;;5094443;28;20095;-43
2024/01/18 06:25:25;;;;;;;0.75;0.50;;;11.90;90.50;;;;;;5093000;28;20124;-44
2024/01/18 06:27:51;;;;;;;0.93;0.40;;;11.80;90.50;;;;;;5094337;28;20028;-44
2024/01/18 06:30:18;;;;;;;1.23;0.40;;;11.70;90.60;;;;;;5095087;28;20070;-44
2024/01/18 06:32:44;;;;;;;0.65;0.45;;;11.60;91.20;;;;;;5094097;28;20098;-44
2024/01/18 06:35:10;;;;;;;0.43;0.38;;;11.70;91.60;;;;;;5094309;28;20496;-42
2024/01/18 06:37:37;;;;;;;0.82;0.50;;;12.00;91.30;;;;;;5094266;28;20516;-44
2024/01/18 06:40:02;;;;;;;0.63;0.50;;;12.10;90.70;;;;;;5094136;28;20081;-43
2024/01/18 06:42:28;;;;;;;0.80;0.40;;;12.10;90.40;;;;;;5094100;28;20032;-44
2024/01/18 06:44:54;;;;;;;0.50;0.30;;;12.10;90.40;;;;;;5093534;28;20020;-44
2024/01/18 06:47:20;;;;;;;0.70;0.50;;;12.00;90.40;;;;;;5093826;28;20107;-42
2024/01/18 06:49:45;;;;;;;0.50;0.40;;;11.90;90.50;;;;;;5094712;28;20028;-44
2024/01/18 06:52:11;;;;;;;0.52;0.30;;;11.80;90.50;;;;;;5094123;28;20091;-44
2024/01/18 06:54:37;;;;;;;1.30;0.40;;;11.80;90.70;;;;;;5093779;28;20407;-44
2024/01/18 06:57:03;;;;;;;2.00;0.88;;;11.70;91.20;;;;;;5093856;28;20028;-44
2024/01/18 06:59:29;;;;;;;0.65;0.40;;;11.70;91.60;;;;;;5094128;28;20028;-44
2024/01/18 07:01:55;;;;;;;0.77;0.63;;;12.00;91.40;;;;;;5093559;28;20024;-43
2024/01/18 07:04:21;;;;;;;0.63;0.50;;;12.10;90.70;;;;;;5093528;28;20112;-44
2024/01/18 07:06:47;;;;;;;0.80;0.50;;;12.20;90.50;;;;;;5093674;28;20041;-44
2024/01/18 07:09:12;;;;;;;0.50;0.35;;;12.10;90.40;;;;;;5093639;28;20028;-41
2024/01/18 07:11:39;;;;;;;0.73;0.30;;;12.00;90.40;;;;;;5093583;28;20024;-44
2024/01/18 07:14:05;;;;;;;0.55;0.43;;;11.90;90.50;;;;;;5093504;28;20072;-42
2024/01/18 07:16:30;;;;;;;0.52;0.30;;;11.80;90.50;;;;;;5093290;28;20416;-42
2024/01/18 07:18:56;;;;;;;0.35;0.30;;;11.80;90.70;;;;;;5093834;28;20035;-44
2024/01/18 07:21:22;;;;;;;1.08;0.35;;;11.60;91.10;;;;;;5093821;28;20390;-44
2024/01/18 07:23:48;;;;;;;0.82;0.60;;;11.70;91.60;;;;;;5093510;28;20055;-44
2024/01/18 07:26:13;;;;;;;0.35;0.35;;;11.90;91.50;;;;;;5093268;28;20382;-44
2024/01/18 07:28:39;;;;;;;0.50;0.40;;;12.10;90.80;;;;;;5093221;28;20445;-43
2024/01/18 07:31:05;;;;;;;0.50;0.40;;;12.10;90.50;;;;;;5093034;28;20032;-44
2024/01/18 07:33:30;;;;;;;0.60;0.50;;;12.10;90.50;;;;;;5093284;28;20456;-44
2024/01/18 07:35:56;;;;;;;0.32;0.30;;;12.00;90.50;;;;;;5093082;28;20497;-44
2024/01/18 07:38:22;;;;;;;0.93;0.40;;;11.90;90.50;;;;;;5091992;28;20085;-44
2024/01/18 07:40:48;;;;;;;0.70;0.40;;;11.90;90.60;;;;;;5093462;28;20479;-44
2024/01/18 07:43:14;;;;;;;0.70;0.60;;;11.80;90.70;;;;;;5092954;28;20022;-43
2024/01/18 07:45:40;;;;;;;1.05;0.57;;;11.70;91.00;;;;;;5092706;28;20111;-44
2024/01/18 07:48:06;;;;;;;0.93;0.50;;;11.60;91.60;;;;;;5092725;28;20099;-44
2024/01/18 07:50:31;;;;;;;0.90;0.70;;;11.90;91.70;;;;;;5093562;28;20032;-44
2024/01/18 07:52:57;;;;;;;2.05;1.48;;;12.10;90.90;;;;;;5093656;28;20027;-44
2024/01/18 07:55:24;;;;;;;0.88;0.77;;;12.10;90.60;;;;;;5092678;28;20561;-44
2024/01/18 07:57:50;;;;;;;0.73;0.60;;;12.10;90.50;;;;;;5091980;28;20020;-44
2024/01/18 08:00:16;;;;;;;1.15;0.50;;;12.00;90.50;;;;;;5093177;28;20043;-44
2024/01/18 08:02:42;;;;;;;0.50;0.40;;;11.90;90.50;;;;;;5092575;28;20028;-44
2024/01/18 08:05:08;;;;;;;1.00;0.60;;;11.90;90.60;;;;;;5093630;28;20077;-44
2024/01/18 08:07:34;;;;;;;0.88;0.55;;;11.80;90.70;;;;;;5092479;28;20063;-43
2024/01/18 08:09:59;;;;;;;0.68;0.40;;;11.70;90.80;;;;;;5092467;28;20024;-44
2024/01/18 08:12:25;;;;;;;0.85;0.60;;;11.70;91.50;;;;;;5092360;28;20017;-44
2024/01/18 08:14:50;;;;;;;0.90;0.80;;;11.90;91.60;;;;;;5092218;28;20020;-44
2024/01/18 08:17:16;;;;;;;0.85;0.70;;;12.20;90.90;;;;;;5092275;28;20381;-44
2024/01/18 08:19:42;;;;;;;0.77;0.60;;;12.20;90.50;;;;;;5092208;28;20020;-44
2024/01/18 08:22:08;;;;;;;1.00;0.70;;;12.20;90.40;;;;;;5092253;28;20028;-44
2024/01/18 08:24:34;;;;;;;0.85;0.57;;;12.20;90.40;;;;;;5091848;28;20085;-42
2024/01/18 08:26:59;;;;;;;0.57;0.50;;;12.10;90.40;;;;;;5092080;28;20028;-44
2024/01/18 08:29:26;;;;;;;0.30;0.30;;;12.10;90.40;;;;;;5091845;28;20535;-44
2024/01/18 08:31:52;;;;;;;1.15;0.70;;;12.10;90.50;;;;;;5092013;28;20081;-44
2024/01/18 08:34:18;;;;;;;0.98;0.75;;;12.00;90.50;;;;;;5091922;28;20024;-44
2024/01/18 08:36:43;;;;;;;0.90;0.70;;;12.00;91.20;;;;;;5091916;28;20020;-44
2024/01/18 08:39:09;;;;;;;0.88;0.60;;;12.10;91.30;;;;;;5091799;28;20401;-44
2024/01/18 08:41:35;;;;;;;0.90;0.60;;;12.40;90.70;;;;;;5091908;28;20044;-43
2024/01/18 08:44:01;;;;;;;0.65;0.50;;;12.50;90.20;;;;;;5093398;28;20024;-41
2024/01/18 08:46:27;;;;;;;1.23;0.80;;;12.50;90.20;;;;;;5092181;28;20039;-44
2024/01/18 08:48:53;;;;;;;0.82;0.50;;;12.40;90.10;;;;;;5091661;28;20016;-44
2024/01/18 08:51:19;;;;;;;0.60;0.45;;;12.40;90.10;;;;;;5092236;28;20031;-44
2024/01/18 08:53:46;;;;;;;0.50;0.47;;;12.40;90.50;;;;;;5091626;28;20520;-44
2024/01/18 08:56:12;;;;;;;0.60;0.50;;;12.30;90.10;;;;;;5091524;28;20138;-44
2024/01/18 08:58:39;;;;;;;1.70;0.60;;;12.30;90.20;;;;;;5091300;28;20032;-45
2024/01/18 09:01:05;;;;;;;0.63;0.60;;;12.20;90.70;;;;;;5091604;28;20449;-42
2024/01/18 09:03:30;;;;;;;0.60;0.50;;;12.30;91.30;;;;;;5091411;28;20117;-44
2024/01/18 09:05:56;;;;;;;0.88;0.60;;;12.60;90.50;;;;;;5091508;28;20111;-43
2024/01/18 09:08:22;;;;;;;0.65;0.45;;;12.70;90.00;;;;;;5091182;28;20031;-44
2024/01/18 09:10:49;;;;;;;1.13;0.57;;;12.70;89.80;;;;;;5092321;28;20027;-43
2024/01/18 09:13:14;;;;;;;0.50;0.47;;;12.60;89.70;;;;;;5091793;28;20026;-44
2024/01/18 09:15:41;;;;;;;0.63;0.40;;;12.60;89.80;;;;;;5091414;28;20028;-44
2024/01/18 09:18:07;;;;;;;0.98;0.50;;;12.60;89.80;;;;;;5091281;28;20032;-43
2024/01/18 09:20:33;;;;;;;1.20;0.40;;;12.60;89.90;;;;;;5092339;28;20482;-44
2024/01/18 09:22:59;;;;;;;0.57;0.47;;;12.50;89.90;;;;;;5091345;28;20039;-44
2024/01/18 09:25:25;;;;;;;2.20;0.60;;;12.50;90.40;;;;;;5091912;28;20443;-44
2024/01/18 09:27:51;;;;;;;0.60;0.50;;;12.50;90.70;;;;;;5091315;28;20478;-44
2024/01/18 09:30:17;;;;;;;0.63;0.40;;;12.80;90.30;;;;;;5091176;28;20161;-44
2024/01/18 09:32:42;;;;;;;0.90;0.60;;;12.90;89.60;;;;;;5091604;28;20470;-44
2024/01/18 09:35:08;;;;;;;0.77;0.55;;;12.90;89.20;;;;;;5091202;28;20054;-44
2024/01/18 09:37:35;;;;;;;0.50;0.50;;;12.80;89.20;;;;;;5091093;28;20031;-44
2024/01/18 09:40:01;;;;;;;0.70;0.50;;;12.80;89.20;;;;;;5091064;28;20028;-44
2024/01/18 09:42:35;;;;;;;0.35;0.30;;;12.80;89.20;;;;;;5090960;28;20382;-44
2024/01/18 09:45:07;;;;;;;0.77;0.40;;;12.80;89.30;;;;;;5091028;28;20471;-44
2024/01/18 09:47:33;;;;;;;0.50;0.40;;;12.70;89.40;;;;;;5091043;28;20028;-44
2024/01/18 09:49:59;;;;;;;0.80;0.40;;;12.60;90.10;;;;;;5091272;28;20030;-43
2024/01/18 09:52:25;;;;;;;0.40;0.30;;;12.70;90.40;;;;;;5091683;28;20023;-44
2024/01/18 09:54:50;;;;;;;0.75;0.40;;;12.90;90.10;;;;;;5090903;28;20028;-44
2024/01/18 09:57:25;;;;;;;2.20;0.40;;;13.00;89.10;;;;;;5090996;28;20035;-44
2024/01/18 09:59:56;;;;;;;0.50;0.38;;;13.00;89.50;;;;;;5089848;28;20435;-45
2024/01/18 10:02:22;;;;;;;0.35;0.30;;;13.00;88.80;;;;;;5090883;28;20021;-45
2024/01/18 10:04:49;;;;;;;0.68;0.60;;;13.00;88.60;;;;;;5090729;28;20021;-44
2024/01/18 10:07:15;;;;;;;1.00;0.68;;;13.00;87.50;;;;;;5090790;28;20031;-44
2024/01/18 10:09:40;;;;;;;0.60;0.57;;;12.90;87.30;;;;;;5090844;28;20028;-44
2024/01/18 10:12:06;;;;;;;1.00;0.80;;;12.90;87.50;;;;;;5091815;28;20027;-43
2024/01/18 10:14:41;;;;;;;0.60;0.60;;;12.80;89.00;;;;;;5090764;28;20481;-44
2024/01/18 10:17:07;;;;;;;0.55;0.43;;;12.90;89.60;;;;;;5090758;28;20028;-44
2024/01/18 10:19:33;;;;;;;0.75;0.50;;;13.10;88.40;;;;;;5090926;28;20024;-44
2024/01/18 10:22:00;;;;;;;0.75;0.70;;;13.20;87.70;;;;;;5094230;28;20454;-42
2024/01/18 10:24:29;;;;;;;0.77;0.60;;;13.10;87.60;;;;;;5094376;28;20032;-44
2024/01/18 10:27:04;;;;;;;0.60;0.60;;;13.20;87.70;;;;;;5094680;28;20027;-44
2024/01/18 10:29:35;;;;;;;0.60;0.50;;;13.20;87.70;;;;;;5094277;28;20065;-44
2024/01/18 10:32:03;;;;;;;0.75;0.45;;;13.10;87.70;;;;;;5094700;28;20027;-44
2024/01/18 10:34:33;;;;;;;0.52;0.50;;;13.10;87.80;;;;;;5092754;28;20024;-44
2024/01/18 10:36:58;;;;;;;0.40;0.40;;;13.10;87.80;;;;;;5094356;28;20028;-44
2024/01/18 10:39:24;;;;;;;0.57;0.50;;;13.00;89.00;;;;;;5094270;28;20023;-44
2024/01/18 10:41:50;;;;;;;1.00;0.47;;;13.20;89.40;;;;;;5094157;28;20133;-44
2024/01/18 10:44:16;;;;;;;0.65;0.55;;;13.40;88.00;;;;;;5093999;28;20059;-44
2024/01/18 10:46:42;;;;;;;0.52;0.50;;;13.40;87.30;;;;;;5093942;28;20093;-43
2024/01/18 10:49:08;;;;;;;0.50;0.40;;;13.40;87.20;;;;;;5093968;28;20488;-43
2024/01/18 10:51:37;;;;;;;0.50;0.40;;;13.40;87.20;;;;;;5094586;28;20016;-43
2024/01/18 10:54:06;;;;;;;0.50;0.40;;;13.40;87.20;;;;;;5094368;28;20028;-44
2024/01/18 10:56:31;;;;;;;0.35;0.32;;;13.40;87.20;;;;;;5094079;28;20147;-44
2024/01/18 10:58:57;;;;;;;0.47;0.47;;;13.40;87.30;;;;;;5093822;28;20453;-44
2024/01/18 11:01:23;;;;;;;0.40;0.40;;;13.30;87.20;;;;;;5093732;28;20551;-44
2024/01/18 11:03:49;;;;;;;0.65;0.60;;;13.30;88.30;;;;;;5093643;28;20035;-44
2024/01/18 11:06:15;;;;;;;0.85;0.40;;;13.40;88.70;;;;;;5093610;28;20417;-44
2024/01/18 11:08:41;;;;;;;0.68;0.40;;;13.60;87.60;;;;;;5093577;28;20024;-44
2024/01/18 11:11:07;;;;;;;0.40;0.40;;;13.60;86.70;;;;;;5093527;28;20498;-44
2024/01/18 11:13:34;;;;;;;0.32;0.32;;;13.60;86.60;;;;;;5093446;28;20432;-44
2024/01/18 11:16:00;;;;;;;0.98;0.40;;;13.60;86.60;;;;;;5093383;28;20021;-44
2024/01/18 11:18:26;;;;;;;0.82;0.40;;;13.60;86.60;;;;;;5093612;28;20446;-44
2024/01/18 11:20:57;;;;;;;0.40;0.38;;;13.60;86.60;;;;;;5093468;28;20067;-44
2024/01/18 11:23:26;;;;;;;0.60;0.40;;;13.60;86.60;;;;;;5093843;28;20028;-43
2024/01/18 11:25:53;;;;;;;0.35;0.30;;;13.60;86.70;;;;;;5093183;28;20081;-43
2024/01/18 11:28:22;;;;;;;1.27;0.50;;;13.50;87.50;;;;;;5093196;28;20303;-44
2024/01/18 11:30:48;;;;;;;0.60;0.40;;;13.60;88.00;;;;;;5093447;28;20065;-42
2024/01/18 11:33:14;;;;;;;0.47;0.40;;;13.90;87.00;;;;;;5092208;28;20024;-44
2024/01/18 11:35:41;;;;;;;0.80;0.40;;;13.90;86.10;;;;;;5093895;28;20039;-44
2024/01/18 11:38:32;;;;;;;0.40;0.38;;;13.90;86.00;;;;;;5093145;28;20044;-44
2024/01/18 11:41:09;;;;;;;0.60;0.40;;;14.00;86.10;;;;;;5093263;28;20044;-43
2024/01/18 11:43:55;;;;;;;0.20;0.20;;;14.00;86.00;;;;;;5093545;28;20032;-42
2024/01/18 11:46:41;;;;;;;0.63;0.30;;;14.00;85.90;;;;;;5093401;28;20021;-43
2024/01/18 11:49:07;;;;;;;0.30;0.30;;;14.00;85.90;;;;;;5092809;28;20020;-44
2024/01/18 11:51:34;;;;;;;1.20;0.50;;;14.10;85.90;;;;;;5092894;28;20020;-44
2024/01/18 11:54:01;;;;;;;0.63;0.40;;;14.00;86.40;;;;;;5092694;28;20028;-44
2024/01/18 11:56:28;;;;;;;0.50;0.40;;;14.10;86.80;;;;;;5092702;28;20085;-43
2024/01/18 11:58:56;;;;;;;0.43;0.40;;;14.30;85.80;;;;;;5092560;28;20020;-44
2024/01/18 12:01:22;;;;;;;0.30;0.30;;;14.30;85.00;;;;;;5092652;28;20024;-44
2024/01/18 12:03:48;;;;;;;0.82;0.30;;;14.30;84.90;;;;;;5093081;28;20035;-44
2024/01/18 12:06:15;;;;;;;0.75;0.60;;;14.40;85.00;;;;;;5092465;28;20530;-44
2024/01/18 12:08:41;;;;;;;0.45;0.30;;;14.40;84.80;;;;;;5092411;28;20032;-44
2024/01/18 12:11:07;;;;;;;0.30;0.30;;;14.40;84.70;;;;;;5092525;28;20035;-44
2024/01/18 12:13:33;;;;;;;0.65;0.30;;;14.40;84.60;;;;;;5092650;28;20016;-43
2024/01/18 12:15:59;;;;;;;0.52;0.50;;;14.40;84.50;;;;;;5093317;28;20032;-44
2024/01/18 12:18:25;;;;;;;0.70;0.43;;;14.40;85.20;;;;;;5092462;28;20076;-43
2024/01/18 12:20:51;;;;;;;0.50;0.30;;;14.30;85.60;;;;;;5092721;28;20035;-44
2024/01/18 12:23:16;;;;;;;0.47;0.40;;;14.50;85.30;;;;;;5093227;28;20052;-44
2024/01/18 12:25:43;;;;;;;0.60;0.50;;;14.60;84.30;;;;;;5090764;28;20443;-44
2024/01/18 12:28:10;;;;;;;0.55;0.50;;;14.60;84.10;;;;;;5091888;28;20051;-43
2024/01/18 12:30:42;;;;;;;0.35;0.32;;;14.50;84.10;;;;;;5092265;28;20027;-43
2024/01/18 12:33:09;;;;;;;0.50;0.40;;;14.60;84.90;;;;;;5092048;28;20093;-43
2024/01/18 12:35:36;;;;;;;0.35;0.32;;;14.60;84.00;;;;;;5092045;28;20103;-44
2024/01/18 12:38:03;;;;;;;0.98;0.50;;;14.60;84.00;;;;;;5091658;28;20043;-42
2024/01/18 12:40:29;;;;;;;0.60;0.40;;;14.60;84.00;;;;;;5091962;28;20430;-44
2024/01/18 12:43:03;;;;;;;0.98;0.45;;;14.60;84.00;;;;;;5091464;28;20107;-44